Redondo, Valles Caldera, New Mexico Weather observations

Data are for 10 minute period ending at time listed.
 Day   Time   Solar   Ave.   Ave.  Ave.  Vector  Max.   Baro.   Total    
  of    of     Rad.   Air    Rel.  Wind   Wind   Wind  Press.  Precip.   
Year   Day            Temp.  Hum.  Speed  Dir.   Gust                    
2014   (MST)  Kw/m2    F      %     mph   deg.    mph    mb.     in.     
-------------------------------------------------------------------------
 331   12:30   0.59   52.6    14    4.6   288    10.2   696.4    0.00 
 331   12:40   0.56   53.3    14    4.5   302     9.6   696.3    0.00 
 331   12:50   0.27   52.1    14    3.9   296     8.4   696.2    0.00 
 331   13:00   0.26   50.4    15    4.5   294     9.6   696.2    0.01 
 331   13:10   0.39   51.9    15    3.9   289     9.6   696.2    0.00 
 331   13:20   0.14   50.6    16    4.6   316     8.4   696.1    0.00 
 331   13:30   0.39   52.0    15    3.7   300     8.4   696.0    0.00 
 331   13:40   0.51   53.6    14    4.0   289     8.4   695.9    0.00 
 331   13:50   0.49   53.7    15    3.8   296     7.8   695.9    0.00 
 331   14:00   0.47   52.8    15    5.1   299    11.3   695.8    0.00 
 331   14:10   0.45   52.9    15    4.8   304    13.1   695.8    0.00 
 331   14:20   0.43   52.6    16    4.7   292     9.0   695.8    0.00 
 331   14:30   0.41   52.2    16    4.2   285     9.0   695.8    0.00 
 331   14:40   0.38   52.6    16    4.0   300     9.0   695.8    0.00 
 331   14:50   0.35   52.2    16    4.8   308     9.6   695.7    0.00 
 331   15:00   0.33   51.8    16    4.8   293     9.0   695.6    0.01 
 331   15:10   0.30   52.0    16    4.4   309     9.6   695.7    0.00 
 331   15:20   0.27   51.0    16    4.4   304    10.2   695.7    0.00 
 331   15:30   0.24   50.5    17    4.9   316    10.2   695.7    0.00 
 331   15:40   0.16   48.5    18    5.1   316    11.9   695.7    0.00 
 331   15:50   0.15   47.7    19    4.8   309    10.8   695.8    0.00 
 331   16:00   0.07   45.4    21    4.8   317     9.6   695.8    0.00 
 331   16:10   0.07   44.1    22    5.9   311    12.5   695.8    0.00 
 331   16:20   0.04   43.0    23    4.7   318    11.9   695.9    0.00 
 331   16:30   0.03   42.1    25    5.0   316     8.4   695.9    0.00 
 331   16:40   0.01   41.3    26    4.8   316    10.2   695.9    0.00 
 331   16:50   0.01   40.5    27    4.8   317     9.6   695.9    0.00 
 331   17:00   0.00   39.6    27    4.2   319     6.6   695.9    0.00 
 331   17:10   0.00   38.8    27    3.9   323     6.6   695.9    0.00 
 331   17:20   0.00   38.3    27    4.1   325     6.0   695.9    0.00 
 331   17:30   0.00   38.2    26    4.6   323     8.4   696.0    0.00 
 331   17:40   0.00   37.8    27    4.0   319     7.2   696.0    0.00 
 331   17:50   0.00   37.9    26    4.3   317     8.4   696.0    0.00 
 331   18:00   0.00   38.0    25    4.3   325     7.8   695.9    0.00 
 331   18:10   0.00   37.9    24    4.9   325     8.4   695.9    0.00 
 331   18:20   0.00   38.2    24    4.8   323     9.6   695.9    0.00 
 331   18:30   0.00   38.4    23    5.0   323    10.8   695.9    0.00 
 331   18:40   0.00   38.3    23    5.1   323    10.2   695.9    0.00 
 331   18:50   0.00   38.0    23    5.0   326    11.3   695.9    0.00 
 331   19:00   0.00   37.5    24    4.8   321     9.6   695.9    0.00 
 331   19:10   0.00   37.4    24    5.1   320     9.6   695.9    0.00 
 331   19:20   0.00   37.7    23    5.0   318     9.0   695.8    0.00 
 331   19:30   0.00   37.6    23    5.6   323    10.8   695.7    0.00 
 331   19:40   0.00   37.8    22    5.4   321     9.6   695.7    0.00 
 331   19:50   0.00   37.8    22    5.2   318    11.3   695.7    0.00 
 331   20:00   0.00   38.2    21    5.7   318    14.9   695.7    0.00 
 331   20:10   0.00   38.8    20    6.2   322    11.3   695.7    0.00 
 331   20:20   0.00   38.2    21    5.5   320    12.5   695.6    0.00 
 331   20:30   0.00   38.4    20    5.5   322    10.2   695.6    0.00 
 331   20:40   0.00   38.2    20    5.0   318     9.0   695.6    0.00 
 331   20:50   0.00   37.8    21    4.4   314     9.0   695.6    0.00 
 331   21:00   0.00   37.6    21    4.6   318    10.8   695.6    0.00 
 331   21:10   0.00   37.4    22    4.5   321     9.0   695.5    0.00 
 331   21:20   0.00   37.6    22    4.8   320    11.3   695.6    0.00 
 331   21:30   0.00   37.4    21    5.3   323    10.8   695.5    0.00 
 331   21:40   0.00   37.4    20    4.9   324    10.8   695.4    0.00 
 331   21:50   0.00   37.5    20    5.0   322    11.9   695.4    0.00 
 331   22:00   0.00   37.4    19    4.6   318     7.8   695.4    0.00 
 331   22:10   0.00   37.2    20    4.6   325     9.0   695.2    0.00 
 331   22:20   0.00   37.3    23    4.4   319     7.8   695.2    0.00 
 331   22:30   0.00   37.3    21    4.7   324     9.6   695.2    0.00 
 331   22:40   0.00   37.2    19    5.0   321    11.9   695.2    0.00 
 331   22:50   0.00   37.6    19    4.9   320    10.2   695.2    0.00 
 331   23:00   0.00   37.6    20    4.9   328    10.2   695.1    0.00 
 331   23:10   0.00   37.7    19    4.9   322    10.2   695.1    0.00 
 331   23:20   0.00   37.8    18    5.2   318    12.5   695.0    0.00 
 331   23:30   0.00   38.0    18    5.3   319     9.6   695.0    0.00 
 331   23:40   0.00   38.1    18    5.7   320    13.1   694.9    0.00 
 331   23:50   0.00   38.1    19    5.0   320     8.4   694.9    0.00 
 332    0:00   0.00   37.9    21    5.3   323    10.2   694.8    0.00 
 332    0:10   0.00   38.0    21    5.7   322    11.9   694.6    0.00 
 332    0:20   0.00   37.7    21    5.3   326    10.2   694.6    0.00 
 332    0:30   0.00   37.4    22    5.2   320     9.0   694.6    0.00 
 332    0:40   0.00   37.4    23    5.4   320    12.5   694.4    0.00 
 332    0:50   0.00   37.1    21    5.1   321     9.6   694.4    0.00 
 332    1:00   0.00   36.8    21    5.2   322    10.8   694.4    0.00 
 332    1:10   0.00   36.8    20    5.4   322     9.0   694.4    0.00 
 332    1:20   0.00   36.8    20    5.5   322    10.8   694.4    0.00 
 332    1:30   0.00   36.9    19    5.4   317    10.8   694.4    0.00 
 332    1:40   0.00   36.9    18    5.8   321    10.8   694.4    0.00 
 332    1:50   0.00   37.0    18    6.1   323    11.3   694.4    0.00 
 332    2:00   0.00   37.1    22    5.2   316    13.1   694.4    0.00 
 332    2:10   0.00   36.9    24    5.0   326     9.0   694.3    0.00 
 332    2:20   0.00   36.5    26    5.6   324    11.9   694.3    0.00 
 332    2:30   0.00   36.8    27    5.6   320     9.0   694.2    0.00 
 332    2:40   0.00   37.7    27    6.6   315    14.9   694.3    0.00 
 332    2:50   0.00   37.6    27    6.1   321    11.3   694.1    0.00 
 332    3:00   0.00   37.8    24    6.7   319    13.7   694.1    0.00 
 332    3:10   0.00   38.1    23    6.1   316    12.5   694.0    0.00 
 332    3:20   0.00   37.6    26    6.2   316    14.3   693.9    0.00 
 332    3:30   0.00   37.4    25    6.6   322    11.9   693.9    0.00 
 332    3:40   0.00   37.5    22    6.1   316    11.9   693.9    0.00 
 332    3:50   0.00   37.9    19    6.8   323    14.9   693.7    0.00 
 332    4:00   0.00   37.8    18    6.3   317    16.1   693.7    0.00 
 332    4:10   0.00   38.2    16    7.3   320    14.9   693.6    0.00 
 332    4:20   0.00   38.4    15    7.2   316    14.3   693.6    0.00 
 332    4:30   0.00   37.9    15    7.1   317    14.3   693.6    0.00 
 332    4:40   0.00   37.9    16    6.7   323    16.7   693.6    0.00 
 332    4:50   0.00   37.5    16    6.7   318    11.9   693.5    0.00 
 332    5:00   0.00   37.4    16    6.9   318    16.1   693.4    0.00 
 332    5:10   0.00   37.8    15    7.6   319    16.7   693.3    0.00 
 332    5:20   0.00   38.0    14    7.7   319    15.5   693.2    0.00 
 332    5:30   0.00   37.7    14    7.2   320    14.3   693.2    0.00 
 332    5:40   0.00   37.8    14    7.5   317    14.9   693.2    0.00 
 332    5:50   0.00   37.8    14    8.1   319    16.1   693.1    0.00 
 332    6:00   0.00   37.7    14    8.8   323    20.3   693.0    0.00 
 332    6:10   0.00   38.2    13    9.1   323    17.3   693.0    0.00 
 332    6:20   0.00   38.2    12    8.3   325    17.3   693.0    0.00 
 332    6:30   0.00   38.6    12    8.9   321    17.3   693.1    0.00 
 332    6:40   0.00   38.9    12    8.4   322    16.7   693.1    0.00 
 332    6:50   0.00   38.8    12    8.5   322    17.9   693.1    0.00 
 332    7:00   0.00   39.0    12    9.0   317    18.5   693.1    0.00 
 332    7:10   0.00   39.1    12    9.1   320    19.7   693.1    0.00 
 332    7:20   0.01   38.9    12    8.2   322    14.9   693.1    0.00 
 332    7:30   0.02   39.2    12    8.3   322    17.9   693.1    0.00 
 332    7:40   0.03   39.4    12    8.5   323    18.5   693.1    0.00 
 332    7:50   0.10   40.7    12    8.2   321    22.1   693.1    0.00 
 332    8:00   0.14   42.5    11    8.4   322    14.3   693.2    0.00 
 332    8:10   0.18   43.2    11    7.6   321    13.7   693.3    0.00 
 332    8:20   0.21   44.5    11    8.1   318    14.9   693.4    0.00 
 332    8:30   0.24   45.1    11    7.5   319    19.7   693.4    0.00 
 332    8:40   0.28   45.3    11    8.3   320    16.1   693.5    0.00 
 332    8:50   0.30   45.2    12    8.6   318    14.9   693.5    0.00 
 332    9:00   0.33   45.9    13    7.0   324    16.1   693.5    0.00 
 332    9:10   0.36   45.9    13    7.4   321    13.7   693.5    0.00 
 332    9:20   0.38   46.3    13    6.7   324    12.5   693.5    0.00 
 332    9:30   0.41   46.2    13    7.7   320    14.9   693.4    0.00 
 332    9:40   0.43   46.6    14    7.5   323    15.5   693.4    0.00 
 332    9:50   0.45   46.7    14    7.4   319    15.5   693.4    0.00 
 332   10:00   0.47   46.3    13    7.8   321    14.9   693.4    0.00 
 332   10:10   0.49   46.5    14    7.8   322    17.9   693.4    0.00 
 332   10:20   0.51   46.3    14    8.4   316    17.3   693.3    0.00 
 332   10:30   0.52   46.0    15    8.3   314    17.9   693.1    0.00 
 332   10:40   0.54   46.2    15    8.8   316    16.1   692.9    0.00 
 332   10:50   0.55   46.1    15    9.0   313    16.7   692.8    0.00 
 332   11:00   0.56   47.3    14    9.0   322    17.3   692.7    0.00 
 332   11:10   0.57   47.7    14    7.9   322    14.3   692.6    0.00 
 332   11:20   0.58   48.2    14    8.5   317    17.3   692.4    0.00 
 332   11:30   0.59   47.7    13    9.5   316    17.3   692.3    0.00 
 332   11:40   0.59   47.7    13    8.1   308    17.3   692.1    0.00 
 332   11:50   0.59   47.9    13    7.9   313    16.1   692.0    0.00 
 332   12:00   0.60   49.0    12    8.1   317    17.9   691.9    0.00 
 332   12:10   0.57   48.2    12    8.0   308    19.7   691.8    0.00 
 332   12:20   0.58   48.0    13    8.1   316    15.5   691.7    0.00 

Return to Redondo, Valles Caldera graphs page.


Western Regional Climate Center,wrcc@dri.edu